createdAt,value
2023-03-21T00:00:50.422Z,18.55
2023-03-21T00:03:18.208Z,15.32
2023-03-21T00:05:49.827Z,19.08
2023-03-21T00:08:18.227Z,16.17
2023-03-21T00:10:45.901Z,12.93
2023-03-21T00:13:16.302Z,15.35
2023-03-21T00:16:04.248Z,17.83
2023-03-21T00:18:41.696Z,13.30
2023-03-21T00:24:01.329Z,12.13
2023-03-21T00:26:29.045Z,14.25
2023-03-21T00:28:56.714Z,18.48
2023-03-21T00:31:25.742Z,18.60
2023-03-21T00:33:53.462Z,23.63
2023-03-21T00:36:21.584Z,16.83
2023-03-21T00:38:49.443Z,17.73
2023-03-21T00:41:26.318Z,16.90
2023-03-21T00:44:04.918Z,19.42
2023-03-21T00:46:45.206Z,15.02
2023-03-21T00:49:14.752Z,12.90
2023-03-21T00:51:43.513Z,18.02
2023-03-21T00:54:13.194Z,19.48
2023-03-21T00:56:40.880Z,18.77
2023-03-21T00:59:08.622Z,18.52
2023-03-21T01:01:37.589Z,19.33
2023-03-21T01:04:07.369Z,19.92
2023-03-21T01:06:39.911Z,19.90
2023-03-21T01:09:08.225Z,16.95
2023-03-21T01:11:36.194Z,16.60
2023-03-21T01:14:20.766Z,19.55
2023-03-21T01:16:50.925Z,19.83
2023-03-21T01:19:27.600Z,22.45
2023-03-21T01:21:57.497Z,19.23
2023-03-21T01:24:25.173Z,13.02
2023-03-21T01:26:52.971Z,16.58
2023-03-21T01:29:21.000Z,23.17
2023-03-21T01:31:48.785Z,17.80
2023-03-21T01:34:18.652Z,21.75
2023-03-21T01:36:46.433Z,20.02
2023-03-21T01:39:14.210Z,21.05
2023-03-21T01:41:44.566Z,18.85
2023-03-21T01:44:17.291Z,19.50
2023-03-21T01:47:00.069Z,14.15
2023-03-21T01:49:39.799Z,18.33
2023-03-21T01:52:18.979Z,17.83
2023-03-21T01:54:54.554Z,21.17
2023-03-21T01:57:43.529Z,15.75
2023-03-21T02:00:19.114Z,18.38
2023-03-21T02:02:52.531Z,18.52
2023-03-21T02:05:28.317Z,18.85
2023-03-21T02:07:56.107Z,21.00
2023-03-21T02:10:24.160Z,20.33
2023-03-21T02:12:54.890Z,20.60
2023-03-21T02:15:26.507Z,18.65
2023-03-21T02:17:59.853Z,18.90
2023-03-21T02:20:51.108Z,15.85
2023-03-21T02:23:41.723Z,19.70
2023-03-21T02:26:41.892Z,19.40
2023-03-21T02:29:29.402Z,22.95
2023-03-21T02:32:20.473Z,21.33
2023-03-21T02:35:12.021Z,15.20
2023-03-21T02:37:46.782Z,18.15
2023-03-21T02:40:27.016Z,18.05
2023-03-21T02:43:04.282Z,19.48
2023-03-21T02:45:40.254Z,16.63
2023-03-21T02:48:20.309Z,18.58
2023-03-21T02:50:57.111Z,14.57
2023-03-21T02:53:33.740Z,15.23
2023-03-21T02:56:02.914Z,18.95
2023-03-21T02:58:32.938Z,15.25
2023-03-21T03:01:00.791Z,16.92
2023-03-21T03:03:34.425Z,14.05
2023-03-21T03:06:06.347Z,17.20
2023-03-21T03:08:56.299Z,11.82
2023-03-21T03:11:32.344Z,10.88
2023-03-21T03:14:41.931Z,16.38
2023-03-21T03:17:28.365Z,14.63
2023-03-21T03:20:16.503Z,17.25
2023-03-21T03:22:56.241Z,15.75
2023-03-21T03:25:42.129Z,17.90
2023-03-21T03:28:12.235Z,16.30
2023-03-21T03:30:50.992Z,15.98
2023-03-21T03:33:26.664Z,17.83
2023-03-21T03:36:04.941Z,17.63
2023-03-21T03:38:37.570Z,18.80
2023-03-21T03:41:11.656Z,10.98
2023-03-21T03:43:44.632Z,12.95
2023-03-21T03:46:18.143Z,15.95
2023-03-21T03:48:51.372Z,19.02
2023-03-21T03:51:23.729Z,11.15
2023-03-21T03:53:55.950Z,15.93
2023-03-21T03:56:26.491Z,14.15
2023-03-21T03:58:54.410Z,15.52
2023-03-21T04:01:22.031Z,11.32
2023-03-21T04:03:54.612Z,13.85
2023-03-21T04:06:29.122Z,11.23
2023-03-21T04:08:58.902Z,10.23
2023-03-21T04:11:29.051Z,11.60
2023-03-21T04:13:56.687Z,14.02
2023-03-21T04:16:24.728Z,17.92
2023-03-21T04:18:52.462Z,13.50
2023-03-21T04:21:21.523Z,9.75
2023-03-21T04:23:49.152Z,12.48
2023-03-21T04:26:16.798Z,16.00
2023-03-21T04:28:45.879Z,10.82
2023-03-21T04:31:24.971Z,21.02
2023-03-21T04:33:53.071Z,11.73
2023-03-21T04:36:27.320Z,20.63
2023-03-21T04:38:57.080Z,15.07
2023-03-21T04:41:24.810Z,17.02
2023-03-21T04:43:54.369Z,19.13
2023-03-21T04:46:22.563Z,16.42
2023-03-21T04:48:50.647Z,15.48
2023-03-21T04:51:18.441Z,16.00
2023-03-21T04:53:49.624Z,17.08
2023-03-21T04:56:17.734Z,18.17
2023-03-21T04:58:47.906Z,13.20
2023-03-21T05:01:20.146Z,12.32
2023-03-21T05:03:48.220Z,14.48
2023-03-21T05:06:16.188Z,17.70
2023-03-21T05:08:43.931Z,17.10
2023-03-21T05:11:11.604Z,16.23
2023-03-21T05:13:39.318Z,16.45
2023-03-21T05:16:08.427Z,15.52
2023-03-21T05:18:38.641Z,17.75
2023-03-21T05:21:07.970Z,15.10
2023-03-21T05:23:42.015Z,14.38
2023-03-21T05:26:11.216Z,15.77
2023-03-21T05:28:39.941Z,14.48
2023-03-21T05:31:08.780Z,14.80
2023-03-21T05:33:38.004Z,17.13
2023-03-21T05:36:06.750Z,16.30
2023-03-21T05:38:34.483Z,14.52
2023-03-21T05:41:02.259Z,17.13
2023-03-21T05:43:30.041Z,13.65
2023-03-21T05:45:57.983Z,15.43
2023-03-21T05:48:26.020Z,14.35
2023-03-21T05:50:55.952Z,13.10
2023-03-21T05:53:23.703Z,16.05
2023-03-21T05:55:51.482Z,19.30
2023-03-21T05:58:19.526Z,14.57
2023-03-21T06:00:47.374Z,14.68
2023-03-21T06:03:15.271Z,13.75
2023-03-21T06:05:43.116Z,14.82
2023-03-21T06:08:12.906Z,18.25
2023-03-21T06:10:47.721Z,15.60
2023-03-21T06:13:15.819Z,12.68
2023-03-21T06:15:43.522Z,15.82
2023-03-21T06:18:11.217Z,14.60
2023-03-21T06:20:39.344Z,14.25
2023-03-21T06:23:07.033Z,17.10
2023-03-21T06:25:36.199Z,15.02
2023-03-21T06:28:03.966Z,17.70
2023-03-21T06:30:31.743Z,14.10
2023-03-21T06:32:59.379Z,18.23
2023-03-21T06:35:27.167Z,16.35
2023-03-21T06:37:54.896Z,17.85
2023-03-21T06:40:22.634Z,18.77
2023-03-21T06:42:51.686Z,18.83
2023-03-21T06:45:20.684Z,18.80
2023-03-21T06:47:48.451Z,19.50
2023-03-21T06:50:16.792Z,25.55
2023-03-21T06:52:44.571Z,22.90
2023-03-21T06:55:12.477Z,17.20
2023-03-21T06:57:40.175Z,20.02
2023-03-21T07:00:10.907Z,22.65
2023-03-21T07:02:38.694Z,22.05
2023-03-21T07:05:07.392Z,19.80
2023-03-21T07:07:35.237Z,18.15
2023-03-21T07:10:03.265Z,21.33
2023-03-21T07:12:34.007Z,26.75
2023-03-21T07:15:02.470Z,20.65
2023-03-21T07:17:31.537Z,20.30
2023-03-21T07:19:59.183Z,25.08
2023-03-21T07:22:27.872Z,25.65
2023-03-21T07:25:04.290Z,24.40
2023-03-21T07:27:32.899Z,18.38
2023-03-21T07:30:01.088Z,18.05
2023-03-21T07:32:29.867Z,24.73
2023-03-21T07:35:01.276Z,21.75
2023-03-21T07:37:29.334Z,18.92
2023-03-21T07:39:56.988Z,22.17
2023-03-21T07:42:24.620Z,20.48
2023-03-21T07:44:54.895Z,20.40
2023-03-21T07:47:22.525Z,16.95
2023-03-21T07:49:51.193Z,20.65
2023-03-21T07:52:20.259Z,18.60
2023-03-21T07:54:47.849Z,16.27
2023-03-21T07:57:15.526Z,19.52
2023-03-21T07:59:43.139Z,18.00
2023-03-21T08:02:11.969Z,16.10
2023-03-21T08:04:40.127Z,17.10
2023-03-21T08:07:07.784Z,15.20
2023-03-21T08:09:37.532Z,21.33
2023-03-21T08:12:08.139Z,22.30
2023-03-21T08:14:36.884Z,18.95
2023-03-21T08:17:09.320Z,18.27
2023-03-21T08:19:37.368Z,16.00
2023-03-21T08:22:06.664Z,17.70
2023-03-21T08:24:34.877Z,15.77
2023-03-21T08:27:03.821Z,17.88
2023-03-21T08:29:31.487Z,15.82
2023-03-21T08:31:59.168Z,15.55
2023-03-21T08:34:27.199Z,15.88
2023-03-21T08:36:54.895Z,19.83
2023-03-21T08:39:24.052Z,15.48
2023-03-21T08:41:51.744Z,13.95
2023-03-21T08:44:22.005Z,13.15
2023-03-21T08:46:49.683Z,19.05
2023-03-21T08:49:17.350Z,19.48
2023-03-21T08:51:45.603Z,18.40
2023-03-21T08:54:20.079Z,13.98
2023-03-21T08:56:47.942Z,15.05
2023-03-21T08:59:16.356Z,16.75
2023-03-21T09:01:45.518Z,15.95
2023-03-21T09:04:13.566Z,21.67
2023-03-21T09:06:48.056Z,14.57
2023-03-21T09:09:17.004Z,14.98
2023-03-21T09:11:44.721Z,17.38
2023-03-21T09:14:12.916Z,16.70
2023-03-21T09:16:41.228Z,15.00
2023-03-21T09:19:10.421Z,19.73
2023-03-21T09:21:38.671Z,17.48
2023-03-21T09:24:07.275Z,11.20
2023-03-21T09:26:37.845Z,14.65
2023-03-21T09:29:06.872Z,13.90
2023-03-21T09:31:34.723Z,14.68
2023-03-21T09:34:04.917Z,16.92
2023-03-21T09:36:36.113Z,16.35
2023-03-21T09:39:05.634Z,15.00
2023-03-21T09:41:51.986Z,20.30
2023-03-21T09:44:30.052Z,13.48
2023-03-21T09:47:06.825Z,11.77
2023-03-21T09:49:41.416Z,13.95
2023-03-21T09:52:20.278Z,15.43
2023-03-21T09:54:48.713Z,15.75
2023-03-21T09:57:27.168Z,13.40
2023-03-21T09:59:57.578Z,14.32
2023-03-21T10:02:37.700Z,14.40
2023-03-21T10:05:13.279Z,12.65
2023-03-21T10:07:47.633Z,15.00
2023-03-21T10:10:23.636Z,17.50
2023-03-21T10:12:55.081Z,15.63
2023-03-21T10:15:25.484Z,15.15
2023-03-21T10:17:58.331Z,15.07
2023-03-21T10:20:28.135Z,16.85
2023-03-21T10:22:59.660Z,15.75
2023-03-21T10:25:32.412Z,21.60
2023-03-21T10:28:01.459Z,16.15
2023-03-21T10:30:39.961Z,12.95
2023-03-21T10:33:12.670Z,18.60
2023-03-21T10:35:43.275Z,21.80
2023-03-21T10:38:18.253Z,17.13
2023-03-21T10:40:46.799Z,16.15
2023-03-21T10:43:21.711Z,19.48
2023-03-21T10:45:50.376Z,13.70
2023-03-21T10:48:18.365Z,13.52
2023-03-21T10:50:49.969Z,17.15
2023-03-21T10:53:25.436Z,15.45
2023-03-21T10:55:56.998Z,15.13
2023-03-21T10:58:29.132Z,16.13
2023-03-21T11:00:59.797Z,15.00
2023-03-21T11:03:32.165Z,14.77
2023-03-21T11:06:06.655Z,11.95
2023-03-21T11:08:40.955Z,15.23
2023-03-21T11:11:12.363Z,11.68
2023-03-21T11:13:42.864Z,12.77
2023-03-21T11:16:12.792Z,9.65
2023-03-21T11:18:43.419Z,15.30
2023-03-21T11:21:13.504Z,10.80
2023-03-21T11:23:47.887Z,11.18
2023-03-21T11:26:23.989Z,10.05
2023-03-21T11:28:53.720Z,10.63
2023-03-21T11:31:24.847Z,9.85
2023-03-21T11:33:55.419Z,10.23
2023-03-21T11:36:34.772Z,14.38
2023-03-21T11:39:25.679Z,8.43
2023-03-21T11:41:53.742Z,7.15
2023-03-21T11:44:28.653Z,9.88
2023-03-21T11:46:56.409Z,11.32
2023-03-21T11:49:26.234Z,13.20
2023-03-21T11:52:05.841Z,13.68
2023-03-21T11:54:44.580Z,16.80
2023-03-21T11:57:25.265Z,11.07
2023-03-21T12:00:01.459Z,9.52
2023-03-21T12:03:10.454Z,11.77
2023-03-21T12:05:43.583Z,12.30
2023-03-21T12:08:26.468Z,10.20
2023-03-21T12:11:03.548Z,9.57
2023-03-21T12:13:41.734Z,10.82
2023-03-21T12:16:22.616Z,12.20
2023-03-21T12:19:02.984Z,12.13
2023-03-21T12:21:39.896Z,9.55
2023-03-21T12:24:12.329Z,8.50
2023-03-21T12:26:48.247Z,7.95
2023-03-21T12:29:30.772Z,11.95
2023-03-21T12:32:11.160Z,12.30
2023-03-21T12:35:10.287Z,12.48
2023-03-21T12:37:53.839Z,10.23
2023-03-21T12:40:35.037Z,10.15
2023-03-21T12:43:21.836Z,14.27
2023-03-21T12:45:53.197Z,20.17
2023-03-21T12:48:27.592Z,17.65
2023-03-21T12:50:58.706Z,10.98
2023-03-21T12:53:40.492Z,13.45
2023-03-21T12:56:11.288Z,12.55
2023-03-21T12:58:49.043Z,12.07
2023-03-21T13:01:18.946Z,11.80
2023-03-21T13:03:51.461Z,20.20
2023-03-21T13:06:23.139Z,10.20
2023-03-21T13:08:56.484Z,12.85
2023-03-21T13:11:28.313Z,11.65
2023-03-21T13:14:03.771Z,12.02
2023-03-21T13:16:37.075Z,11.25
2023-03-21T13:19:16.777Z,17.73
2023-03-21T13:21:51.701Z,14.98
2023-03-21T13:24:25.923Z,17.42
2023-03-21T13:27:02.427Z,14.57
2023-03-21T13:29:33.602Z,12.20
2023-03-21T13:32:10.404Z,11.23
2023-03-21T13:34:41.489Z,9.02
2023-03-21T13:37:16.746Z,10.30
2023-03-21T13:39:46.866Z,12.77
2023-03-21T13:42:23.423Z,9.80
2023-03-21T13:44:59.001Z,11.55
2023-03-21T13:47:36.986Z,11.45
2023-03-21T13:50:31.055Z,10.10
2023-03-21T13:53:23.693Z,12.40
2023-03-21T13:56:09.395Z,15.13
2023-03-21T13:58:41.402Z,8.55
2023-03-21T14:01:23.527Z,15.35
2023-03-21T14:03:58.937Z,8.20
2023-03-21T14:06:34.811Z,11.57
2023-03-21T14:09:04.799Z,12.65
2023-03-21T14:11:36.743Z,9.30
2023-03-21T14:14:05.268Z,10.88
2023-03-21T14:16:34.812Z,15.55
2023-03-21T14:19:04.950Z,10.10
2023-03-21T14:21:35.597Z,10.25
2023-03-21T14:24:05.686Z,15.27
2023-03-21T14:26:35.631Z,9.73
2023-03-21T14:29:09.619Z,8.65
2023-03-21T14:31:48.949Z,8.68
2023-03-21T14:34:17.859Z,12.40
2023-03-21T14:36:55.386Z,8.85
2023-03-21T14:39:29.305Z,12.90
2023-03-21T14:42:01.841Z,8.15
2023-03-21T14:44:44.200Z,9.93
2023-03-21T14:47:24.406Z,9.23
2023-03-21T14:49:52.713Z,12.52
2023-03-21T14:52:25.436Z,12.10
2023-03-21T14:54:54.286Z,11.70
2023-03-21T14:57:24.895Z,12.90
2023-03-21T14:59:55.442Z,10.50
2023-03-21T15:02:29.318Z,6.97
2023-03-21T15:05:00.531Z,13.13
2023-03-21T15:07:32.257Z,11.02
2023-03-21T15:10:03.647Z,9.38
2023-03-21T15:12:32.415Z,9.48
2023-03-21T15:15:01.356Z,10.00
2023-03-21T15:17:31.086Z,10.27
2023-03-21T15:19:58.768Z,11.05
2023-03-21T15:22:34.030Z,9.25
2023-03-21T15:25:05.639Z,9.13
2023-03-21T15:27:38.309Z,13.35
2023-03-21T15:30:23.637Z,14.13
2023-03-21T15:32:55.471Z,18.90
2023-03-21T15:35:29.401Z,13.48
2023-03-21T15:38:00.116Z,16.48
2023-03-21T15:40:30.468Z,13.55
2023-03-21T15:43:14.302Z,10.70
2023-03-21T15:45:48.975Z,10.82
2023-03-21T15:48:22.142Z,17.52
2023-03-21T15:50:57.650Z,11.88
2023-03-21T15:53:25.830Z,15.23
2023-03-21T15:55:57.249Z,12.98
2023-03-21T15:58:26.836Z,16.80
2023-03-21T16:00:56.368Z,14.50
2023-03-21T16:06:25.602Z,13.35
2023-03-21T16:08:55.019Z,11.25
2023-03-21T16:11:27.929Z,12.20
2023-03-21T16:13:57.486Z,12.68
2023-03-21T16:16:27.077Z,13.45
2023-03-21T16:18:57.968Z,11.32
2023-03-21T16:21:28.486Z,16.08
2023-03-21T16:23:58.129Z,10.65
2023-03-21T16:26:28.373Z,11.95
2023-03-21T16:29:00.260Z,8.40
2023-03-21T16:31:30.288Z,12.02
2023-03-21T16:34:04.599Z,10.23
2023-03-21T16:36:36.456Z,10.50
2023-03-21T16:39:15.925Z,13.30
2023-03-21T16:41:43.746Z,13.45
2023-03-21T16:44:11.793Z,9.95
2023-03-21T16:46:39.607Z,11.90
2023-03-21T16:49:24.768Z,9.07
2023-03-21T16:51:53.532Z,12.07
2023-03-21T16:54:21.353Z,9.98
2023-03-21T16:56:51.469Z,9.07
2023-03-21T16:59:19.609Z,8.75
2023-03-21T17:01:48.518Z,7.10
2023-03-21T17:04:19.375Z,11.35
2023-03-21T17:06:49.419Z,8.85
2023-03-21T17:09:19.124Z,10.05
2023-03-21T17:11:46.759Z,9.05
2023-03-21T17:14:16.810Z,13.10
2023-03-21T17:16:45.214Z,16.52
2023-03-21T17:19:15.291Z,12.52
2023-03-21T17:21:44.758Z,9.55
2023-03-21T17:24:12.498Z,10.95
2023-03-21T17:26:40.822Z,10.85
2023-03-21T17:29:08.780Z,8.73
2023-03-21T17:31:38.353Z,5.57
2023-03-21T17:34:07.229Z,8.02
2023-03-21T17:36:37.871Z,5.93
2023-03-21T17:39:09.570Z,7.57
2023-03-21T17:41:37.233Z,7.22
2023-03-21T17:44:05.314Z,6.25
2023-03-21T17:46:36.957Z,8.32
2023-03-21T17:49:06.857Z,8.10
2023-03-21T17:51:34.559Z,8.95
2023-03-21T17:54:02.314Z,8.23
2023-03-21T17:56:33.346Z,8.10
2023-03-21T17:59:03.863Z,12.68
2023-03-21T18:01:32.861Z,7.05
2023-03-21T18:04:03.002Z,10.02
2023-03-21T18:06:30.750Z,9.57
2023-03-21T18:09:01.169Z,8.63
2023-03-21T18:11:29.385Z,6.85
2023-03-21T18:14:13.856Z,6.68
2023-03-21T18:16:44.383Z,4.95
2023-03-21T18:19:13.502Z,6.43
2023-03-21T18:21:44.789Z,5.97
2023-03-21T18:24:13.555Z,6.63
2023-03-21T18:26:41.746Z,6.03
2023-03-21T18:32:08.948Z,5.03
2023-03-21T18:34:39.322Z,9.02
2023-03-21T18:37:08.409Z,4.78
2023-03-21T18:39:36.700Z,4.57
2023-03-21T18:42:06.227Z,8.68
2023-03-21T18:44:39.841Z,9.30
2023-03-21T18:47:08.534Z,5.75
2023-03-21T18:52:26.306Z,6.03
2023-03-21T18:54:58.282Z,5.65
2023-03-21T18:57:41.944Z,4.60
2023-03-21T19:00:13.911Z,6.60
2023-03-21T19:02:46.878Z,8.65
2023-03-21T19:05:17.131Z,9.07
2023-03-21T19:07:45.829Z,8.02
2023-03-21T19:10:19.427Z,5.35
2023-03-21T19:12:48.126Z,8.82
2023-03-21T19:15:19.819Z,6.75
2023-03-21T19:20:36.833Z,5.10
2023-03-21T19:23:06.053Z,6.35
2023-03-21T19:25:34.033Z,4.65
2023-03-21T19:28:02.405Z,6.47
2023-03-21T19:30:31.947Z,5.68
2023-03-21T19:33:02.269Z,5.45
2023-03-21T19:35:30.130Z,5.70
2023-03-21T19:37:57.982Z,5.25
2023-03-21T19:40:25.913Z,8.05
2023-03-21T19:42:53.596Z,5.80
2023-03-21T19:45:21.625Z,5.88
2023-03-21T19:47:50.899Z,6.38
2023-03-21T19:53:07.380Z,5.95
2023-03-21T19:55:36.348Z,7.78
2023-03-21T19:58:04.355Z,8.25
2023-03-21T20:00:32.204Z,5.45
2023-03-21T20:03:02.734Z,5.47
2023-03-21T20:05:30.842Z,6.18
2023-03-21T20:07:58.734Z,7.47
2023-03-21T20:10:27.554Z,6.43
2023-03-21T20:12:58.292Z,5.30
2023-03-21T20:15:28.398Z,9.05
2023-03-21T20:17:57.895Z,6.32
2023-03-21T20:20:27.026Z,7.15
2023-03-21T20:23:11.634Z,8.80
2023-03-21T20:25:43.749Z,5.82
2023-03-21T20:28:28.609Z,5.18
2023-03-21T20:30:58.645Z,7.15
2023-03-21T20:33:26.569Z,6.60
2023-03-21T20:38:51.346Z,5.97
2023-03-21T20:41:19.334Z,7.95
2023-03-21T20:44:28.481Z,4.50
2023-03-21T20:46:37.115Z,6.97
2023-03-21T20:49:07.296Z,5.28
2023-03-21T20:54:24.011Z,5.65
2023-03-21T20:56:51.736Z,5.22
2023-03-21T20:59:26.422Z,6.85
2023-03-21T21:01:57.163Z,5.15
2023-03-21T21:04:44.135Z,5.47
2023-03-21T21:07:16.327Z,6.18
2023-03-21T21:09:44.776Z,4.80
2023-03-21T21:12:14.377Z,5.93
2023-03-21T21:14:42.819Z,6.97
2023-03-21T21:17:30.794Z,4.70
2023-03-21T21:20:01.980Z,4.95
2023-03-21T21:22:31.567Z,5.68
2023-03-21T21:24:59.358Z,5.68
2023-03-21T21:27:26.928Z,5.18
2023-03-21T21:29:54.517Z,6.53
2023-03-21T21:32:22.268Z,5.45
2023-03-21T21:34:50.276Z,4.63
2023-03-21T21:37:17.934Z,6.18
2023-03-21T21:39:46.962Z,8.15
2023-03-21T21:42:14.820Z,7.20
2023-03-21T21:44:44.890Z,5.90
2023-03-21T21:47:12.977Z,6.70
2023-03-21T21:49:41.165Z,5.65
2023-03-21T21:52:13.278Z,5.80
2023-03-21T21:54:45.360Z,9.27
2023-03-21T21:57:14.857Z,4.78
2023-03-21T21:59:42.565Z,6.85
2023-03-21T22:02:13.748Z,4.72
2023-03-21T22:04:41.635Z,9.27
2023-03-21T22:07:14.183Z,6.38
2023-03-21T22:09:42.380Z,6.10
2023-03-21T22:12:10.502Z,3.90
2023-03-21T22:14:39.499Z,7.55
2023-03-21T22:17:07.159Z,6.18
2023-03-21T22:19:34.802Z,4.75
2023-03-21T22:22:02.540Z,5.63
2023-03-21T22:24:30.281Z,8.95
2023-03-21T22:26:58.680Z,6.15
2023-03-21T22:29:26.753Z,7.55
2023-03-21T22:31:56.031Z,4.90
2023-03-21T22:34:25.982Z,7.10
2023-03-21T22:36:56.904Z,6.60
2023-03-21T22:39:26.299Z,6.22
2023-03-21T22:41:54.648Z,5.78
2023-03-21T22:44:23.629Z,6.28
2023-03-21T22:46:51.263Z,5.88
2023-03-21T22:49:20.342Z,8.50
2023-03-21T22:51:48.068Z,6.65
2023-03-21T22:54:15.868Z,6.80
2023-03-21T22:56:43.612Z,6.25
2023-03-21T22:59:11.326Z,6.38
2023-03-21T23:01:40.037Z,6.18
2023-03-21T23:04:07.929Z,7.70
2023-03-21T23:06:37.587Z,5.88
2023-03-21T23:09:05.504Z,5.30
2023-03-21T23:11:33.320Z,8.60
2023-03-21T23:14:07.594Z,5.30
2023-03-21T23:16:38.234Z,6.30
2023-03-21T23:19:07.653Z,5.75
2023-03-21T23:21:38.192Z,5.85
2023-03-21T23:24:06.978Z,5.90
2023-03-21T23:26:35.842Z,4.95
2023-03-21T23:29:03.999Z,5.32
2023-03-21T23:31:32.864Z,8.77
2023-03-21T23:34:01.084Z,7.05
2023-03-21T23:36:29.083Z,8.00
2023-03-21T23:38:58.116Z,6.93
2023-03-21T23:41:26.504Z,11.07
2023-03-21T23:43:54.273Z,7.82
2023-03-21T23:46:22.249Z,7.53
2023-03-21T23:48:50.598Z,6.18
2023-03-21T23:51:18.854Z,6.63
2023-03-21T23:53:47.343Z,8.68
2023-03-21T23:56:18.593Z,8.45
2023-03-21T23:58:47.208Z,6.63
